createdAt,value
2023-02-23T00:01:18.120Z,12.56
2023-02-23T00:03:20.098Z,12.55
2023-02-23T00:05:23.183Z,12.54
2023-02-23T00:07:27.085Z,12.56
2023-02-23T00:09:35.540Z,12.56
2023-02-23T00:11:39.043Z,12.55
2023-02-23T00:13:42.094Z,12.55
2023-02-23T00:15:43.567Z,12.54
2023-02-23T00:17:47.735Z,12.54
2023-02-23T00:19:49.488Z,12.54
2023-02-23T00:21:52.117Z,12.53
2023-02-23T00:23:57.471Z,12.50
2023-02-23T00:25:59.540Z,12.50
2023-02-23T00:28:01.067Z,12.51
2023-02-23T00:30:02.687Z,12.49
2023-02-23T00:32:04.443Z,12.47
2023-02-23T00:34:07.595Z,12.46
2023-02-23T00:36:11.840Z,12.46
2023-02-23T00:38:13.995Z,12.45
2023-02-23T00:40:18.166Z,12.43
2023-02-23T00:42:20.012Z,12.42
2023-02-23T00:44:23.697Z,12.37
2023-02-23T00:46:27.950Z,12.37
2023-02-23T00:48:29.495Z,12.37
2023-02-23T00:50:32.514Z,12.37
2023-02-23T00:52:34.121Z,12.36
2023-02-23T00:54:37.823Z,12.34
2023-02-23T00:56:42.328Z,12.33
2023-02-23T00:58:43.896Z,12.31
2023-02-23T01:00:45.451Z,12.31
2023-02-23T01:02:48.608Z,12.29
2023-02-23T01:04:50.416Z,12.28
2023-02-23T01:06:51.921Z,12.29
2023-02-23T01:08:56.761Z,12.28
2023-02-23T01:10:58.612Z,12.26
2023-02-23T01:13:00.040Z,12.26
2023-02-23T01:15:03.580Z,12.25
2023-02-23T01:17:07.512Z,12.23
2023-02-23T01:19:11.527Z,12.21
2023-02-23T01:21:19.052Z,12.21
2023-02-23T01:23:21.914Z,12.21
2023-02-23T01:25:24.516Z,12.21
2023-02-23T01:27:26.627Z,12.20
2023-02-23T01:29:29.528Z,12.18
2023-02-23T01:31:31.511Z,12.17
2023-02-23T01:33:33.000Z,12.18
2023-02-23T01:35:36.238Z,12.18
2023-02-23T01:37:42.787Z,12.15
2023-02-23T01:39:45.465Z,12.13
2023-02-23T01:41:47.113Z,12.12
2023-02-23T01:44:06.370Z,12.06
2023-02-23T01:46:10.471Z,12.09
2023-02-23T01:48:30.434Z,12.06
2023-02-23T01:50:39.169Z,12.06
2023-02-23T01:52:41.079Z,12.07
2023-02-23T01:54:54.926Z,12.07
2023-02-23T01:57:00.516Z,12.06
2023-02-23T01:59:07.219Z,12.05
2023-02-23T02:01:11.480Z,12.07
2023-02-23T02:03:22.657Z,12.05
2023-02-23T02:05:25.808Z,12.06
2023-02-23T02:07:35.572Z,12.05
2023-02-23T02:09:39.876Z,12.03
2023-02-23T02:11:44.579Z,12.03
2023-02-23T02:13:46.445Z,12.01
2023-02-23T02:16:05.387Z,12.02
2023-02-23T02:18:23.622Z,12.01
2023-02-23T02:20:53.387Z,11.99
2023-02-23T02:23:36.758Z,11.99
2023-02-23T02:25:58.176Z,11.98
2023-02-23T02:28:08.849Z,11.96
2023-02-23T02:30:27.215Z,11.95
2023-02-23T02:32:58.089Z,11.94
2023-02-23T02:35:27.105Z,11.93
2023-02-23T02:37:43.433Z,11.94
2023-02-23T02:40:16.214Z,11.91
2023-02-23T02:42:34.515Z,11.93
2023-02-23T02:44:54.619Z,11.91
2023-02-23T02:47:04.750Z,11.91
2023-02-23T02:49:30.042Z,11.89
2023-02-23T02:51:42.998Z,11.89
2023-02-23T02:53:53.049Z,11.89
2023-02-23T02:56:00.346Z,11.88
2023-02-23T02:58:03.450Z,11.88
2023-02-23T03:00:24.321Z,11.88
2023-02-23T03:02:44.788Z,11.88
2023-02-23T03:05:05.185Z,11.87
2023-02-23T03:08:15.526Z,11.83
2023-02-23T03:10:38.732Z,11.84
2023-02-23T03:13:26.382Z,11.82
2023-02-23T03:15:52.379Z,11.83
2023-02-23T03:18:43.819Z,11.80
2023-02-23T03:21:13.042Z,11.80
2023-02-23T03:23:42.904Z,11.80
2023-02-23T03:26:27.363Z,11.78
2023-02-23T03:28:56.346Z,11.78
2023-02-23T03:31:57.105Z,11.76
2023-02-23T03:34:33.447Z,11.76
2023-02-23T03:36:58.359Z,11.75
2023-02-23T03:39:40.441Z,11.74
2023-02-23T03:42:03.225Z,11.74
2023-02-23T03:44:32.889Z,11.72
2023-02-23T03:46:54.906Z,11.72
2023-02-23T03:49:20.347Z,11.70
2023-02-23T03:51:44.316Z,11.69
2023-02-23T03:54:14.405Z,11.66
2023-02-23T03:56:38.257Z,11.67
2023-02-23T03:59:03.396Z,11.65
2023-02-23T04:01:26.559Z,11.66
2023-02-23T04:03:50.673Z,11.63
2023-02-23T04:06:14.595Z,11.66
2023-02-23T04:08:38.552Z,11.63
2023-02-23T04:11:07.332Z,11.61
2023-02-23T04:13:20.014Z,11.59
2023-02-23T04:15:38.073Z,11.57
2023-02-23T04:17:40.259Z,11.56
2023-02-23T04:19:53.016Z,11.59
2023-02-23T04:21:58.381Z,11.59
2023-02-23T04:23:59.964Z,11.59
2023-02-23T04:26:01.587Z,11.59
2023-02-23T04:28:03.543Z,11.56
2023-02-23T04:30:05.811Z,11.57
2023-02-23T04:32:08.157Z,11.57
2023-02-23T04:34:09.972Z,11.57
2023-02-23T04:36:11.731Z,11.55
2023-02-23T04:38:13.236Z,11.54
2023-02-23T04:40:15.141Z,11.54
2023-02-23T04:42:17.710Z,11.48
2023-02-23T04:44:19.393Z,11.47
2023-02-23T04:46:21.140Z,11.44
2023-02-23T04:48:25.099Z,11.43
2023-02-23T04:50:26.971Z,11.41
2023-02-23T04:52:28.638Z,11.39
2023-02-23T04:54:30.112Z,11.36
2023-02-23T04:56:31.844Z,11.31
2023-02-23T04:58:33.354Z,11.27
2023-02-23T05:00:34.925Z,11.27
2023-02-23T05:02:42.415Z,11.25
2023-02-23T05:04:44.570Z,11.24
2023-02-23T05:06:46.186Z,11.25
2023-02-23T05:08:47.792Z,11.21
2023-02-23T05:10:49.434Z,11.22
2023-02-23T05:12:51.370Z,11.21
2023-02-23T05:14:52.852Z,11.20
2023-02-23T05:16:54.600Z,11.18
2023-02-23T05:18:56.848Z,11.16
2023-02-23T05:21:07.200Z,11.14
2023-02-23T05:23:09.086Z,11.11
2023-02-23T05:25:11.801Z,11.07
2023-02-23T05:27:17.053Z,11.09
2023-02-23T05:29:19.234Z,11.06
2023-02-23T05:31:23.359Z,11.07
2023-02-23T05:33:25.138Z,11.01
2023-02-23T05:35:26.759Z,11.00
2023-02-23T05:37:28.479Z,11.01
2023-02-23T05:39:30.499Z,11.00
2023-02-23T05:41:32.154Z,10.96
2023-02-23T05:43:33.780Z,10.97
2023-02-23T05:45:40.403Z,10.96
2023-02-23T05:47:44.837Z,10.97
2023-02-23T05:49:46.673Z,10.95
2023-02-23T05:51:48.848Z,10.96
2023-02-23T05:53:50.566Z,10.94
2023-02-23T05:55:52.263Z,10.94
2023-02-23T05:57:53.856Z,10.96
2023-02-23T05:59:55.611Z,10.97
2023-02-23T06:01:57.299Z,10.98
2023-02-23T06:03:58.959Z,10.97
2023-02-23T06:06:00.718Z,11.01
2023-02-23T06:08:02.647Z,10.98
2023-02-23T06:10:05.141Z,10.96
2023-02-23T06:12:07.099Z,10.96
2023-02-23T06:14:08.658Z,10.93
2023-02-23T06:16:10.411Z,10.93
2023-02-23T06:18:12.369Z,10.92
2023-02-23T06:20:14.655Z,10.91
2023-02-23T06:22:17.870Z,10.93
2023-02-23T06:24:19.788Z,10.92
2023-02-23T06:26:21.427Z,10.90
2023-02-23T06:28:23.396Z,10.91
2023-02-23T06:30:25.001Z,10.90
2023-02-23T06:32:27.088Z,10.92
2023-02-23T06:34:30.278Z,10.90
2023-02-23T06:36:34.220Z,10.92
2023-02-23T06:38:36.862Z,10.92
2023-02-23T06:40:39.743Z,10.92
2023-02-23T06:42:41.291Z,10.93
2023-02-23T06:44:42.866Z,10.95
2023-02-23T06:46:44.703Z,10.93
2023-02-23T06:48:46.885Z,10.92
2023-02-23T06:50:48.686Z,10.94
2023-02-23T06:52:52.328Z,10.93
2023-02-23T06:54:53.828Z,10.95
2023-02-23T06:56:56.752Z,10.95
2023-02-23T06:58:58.433Z,10.95
2023-02-23T07:01:00.196Z,10.94
2023-02-23T07:03:01.718Z,10.96
2023-02-23T07:05:04.443Z,10.95
2023-02-23T07:07:06.151Z,10.97
2023-02-23T07:09:07.707Z,10.99
2023-02-23T07:11:11.559Z,11.01
2023-02-23T07:13:13.038Z,11.01
2023-02-23T07:15:18.376Z,11.04
2023-02-23T07:17:22.122Z,11.07
2023-02-23T07:19:23.709Z,11.06
2023-02-23T07:21:25.366Z,11.06
2023-02-23T07:23:26.953Z,11.09
2023-02-23T07:25:31.533Z,11.06
2023-02-23T07:27:33.439Z,11.11
2023-02-23T07:29:34.956Z,11.12
2023-02-23T07:31:37.926Z,11.11
2023-02-23T07:33:39.729Z,11.13
2023-02-23T07:35:44.137Z,11.11
2023-02-23T07:37:45.820Z,11.13
2023-02-23T07:39:47.846Z,11.18
2023-02-23T07:41:49.440Z,11.17
2023-02-23T07:43:53.166Z,11.21
2023-02-23T07:45:54.757Z,11.24
2023-02-23T07:47:56.393Z,11.25
2023-02-23T07:50:08.174Z,11.26
2023-02-23T07:52:10.436Z,11.32
2023-02-23T07:54:11.957Z,11.35
2023-02-23T07:56:13.700Z,11.35
2023-02-23T07:58:15.539Z,11.36
2023-02-23T08:00:17.746Z,11.38
2023-02-23T08:02:19.411Z,11.41
2023-02-23T08:04:21.025Z,11.43
2023-02-23T08:06:22.643Z,11.49
2023-02-23T08:08:24.444Z,11.52
2023-02-23T08:10:26.414Z,11.54
2023-02-23T08:12:28.105Z,11.55
2023-02-23T08:14:29.752Z,11.60
2023-02-23T08:16:33.188Z,11.65
2023-02-23T08:18:35.346Z,11.68
2023-02-23T08:20:36.813Z,11.73
2023-02-23T08:22:48.961Z,11.77
2023-02-23T08:24:51.130Z,11.81
2023-02-23T08:26:53.355Z,11.85
2023-02-23T08:28:55.756Z,11.92
2023-02-23T08:30:59.559Z,11.92
2023-02-23T08:33:01.639Z,11.95
2023-02-23T08:35:03.485Z,12.01
2023-02-23T08:37:05.242Z,12.04
2023-02-23T08:39:07.486Z,12.09
2023-02-23T08:41:09.230Z,12.12
2023-02-23T08:43:10.963Z,12.18
2023-02-23T08:45:12.669Z,12.19
2023-02-23T08:47:16.410Z,12.23
2023-02-23T08:49:18.270Z,12.28
2023-02-23T08:51:20.201Z,12.31
2023-02-23T08:53:23.050Z,12.34
2023-02-23T08:55:24.664Z,12.39
2023-02-23T08:57:27.077Z,12.44
2023-02-23T08:59:28.604Z,12.46
2023-02-23T09:01:30.258Z,12.48
2023-02-23T09:03:36.478Z,12.52
2023-02-23T09:05:38.865Z,12.57
2023-02-23T09:07:45.135Z,12.61
2023-02-23T09:09:46.858Z,12.66
2023-02-23T09:11:48.536Z,12.70
2023-02-23T09:13:50.643Z,12.73
2023-02-23T09:15:52.128Z,12.72
2023-02-23T09:17:54.529Z,12.74
2023-02-23T09:19:56.168Z,12.77
2023-02-23T09:21:57.764Z,12.79
2023-02-23T09:23:59.878Z,12.84
2023-02-23T09:26:06.022Z,12.84
2023-02-23T09:28:07.589Z,12.88
2023-02-23T09:30:09.841Z,12.89
2023-02-23T09:32:11.734Z,12.91
2023-02-23T09:34:13.405Z,12.96
2023-02-23T09:36:18.499Z,12.99
2023-02-23T09:38:20.057Z,13.02
2023-02-23T09:40:31.612Z,13.04
2023-02-23T09:43:02.783Z,13.07
2023-02-23T09:45:18.839Z,13.09
2023-02-23T09:47:32.830Z,13.10
2023-02-23T09:49:44.477Z,13.15
2023-02-23T09:51:53.934Z,13.19
2023-02-23T09:54:02.334Z,13.22
2023-02-23T09:56:35.415Z,13.23
2023-02-23T09:58:39.891Z,13.26
2023-02-23T10:00:49.448Z,13.28
2023-02-23T10:03:04.225Z,13.28
2023-02-23T10:05:52.152Z,13.32
2023-02-23T10:08:03.145Z,13.30
2023-02-23T10:10:28.591Z,13.32
2023-02-23T10:12:52.313Z,13.31
2023-02-23T10:15:10.484Z,13.33
2023-02-23T10:17:33.974Z,13.33
2023-02-23T10:19:53.442Z,13.36
2023-02-23T10:21:59.769Z,13.38
2023-02-23T10:24:17.905Z,13.35
2023-02-23T10:26:24.981Z,13.36
2023-02-23T10:28:28.505Z,13.42
2023-02-23T10:30:33.639Z,13.46
2023-02-23T10:32:50.811Z,13.47
2023-02-23T10:34:57.843Z,13.48
2023-02-23T10:37:01.839Z,13.50
2023-02-23T10:39:08.133Z,13.50
2023-02-23T10:41:14.379Z,13.54
2023-02-23T10:43:16.499Z,13.56
2023-02-23T10:45:24.569Z,13.60
2023-02-23T10:47:37.594Z,13.62
2023-02-23T10:49:43.635Z,13.64
2023-02-23T10:51:45.591Z,13.67
2023-02-23T10:53:47.482Z,13.71
2023-02-23T10:56:02.794Z,13.71
2023-02-23T10:58:19.058Z,13.75
2023-02-23T11:00:21.522Z,13.80
2023-02-23T11:02:27.645Z,13.84
2023-02-23T11:04:35.237Z,13.88
2023-02-23T11:06:43.031Z,13.92
2023-02-23T11:08:44.598Z,13.95
2023-02-23T11:11:00.039Z,13.98
2023-02-23T11:13:04.559Z,14.02
2023-02-23T11:15:48.583Z,14.06
2023-02-23T11:17:56.780Z,14.10
2023-02-23T11:20:02.493Z,14.11
2023-02-23T11:22:06.224Z,14.15
2023-02-23T11:24:10.986Z,14.15
2023-02-23T11:26:32.877Z,14.18
2023-02-23T11:28:37.690Z,14.22
2023-02-23T11:30:43.900Z,14.23
2023-02-23T11:32:52.321Z,14.25
2023-02-23T11:35:21.313Z,14.28
2023-02-23T11:37:23.394Z,14.30
2023-02-23T11:39:25.183Z,14.30
2023-02-23T11:41:30.489Z,14.32
2023-02-23T11:43:32.244Z,14.32
2023-02-23T11:45:55.477Z,14.34
2023-02-23T11:48:02.146Z,14.36
2023-02-23T11:50:11.226Z,14.38
2023-02-23T11:52:16.873Z,14.41
2023-02-23T11:54:59.352Z,14.39
2023-02-23T11:57:02.976Z,14.41
2023-02-23T11:59:13.776Z,14.43
2023-02-23T12:01:20.949Z,14.48
2023-02-23T12:03:25.947Z,14.54
2023-02-23T12:05:31.791Z,14.62
2023-02-23T12:07:41.871Z,14.68
2023-02-23T12:09:49.420Z,14.74
2023-02-23T12:12:06.725Z,14.79
2023-02-23T12:14:20.801Z,14.84
2023-02-23T12:16:34.807Z,14.90
2023-02-23T12:19:00.460Z,14.92
2023-02-23T12:21:15.361Z,14.94
2023-02-23T12:23:22.515Z,14.98
2023-02-23T12:25:40.733Z,15.01
2023-02-23T12:27:57.195Z,15.02
2023-02-23T12:30:08.954Z,15.05
2023-02-23T12:32:39.789Z,15.05
2023-02-23T12:34:52.866Z,15.07
2023-02-23T12:37:08.621Z,15.07
2023-02-23T12:39:32.035Z,15.06
2023-02-23T12:41:42.099Z,15.07
2023-02-23T12:43:53.009Z,15.07
2023-02-23T12:46:10.028Z,15.06
2023-02-23T12:48:28.096Z,15.06
2023-02-23T12:50:38.395Z,15.06
2023-02-23T12:52:51.123Z,15.04
2023-02-23T12:54:53.560Z,15.03
2023-02-23T12:56:57.976Z,15.03
2023-02-23T12:59:13.364Z,15.00
2023-02-23T13:01:41.547Z,15.01
2023-02-23T13:03:49.428Z,15.01
2023-02-23T13:06:12.521Z,15.02
2023-02-23T13:08:28.886Z,14.99
2023-02-23T13:10:49.029Z,14.99
2023-02-23T13:13:04.984Z,15.02
2023-02-23T13:15:56.134Z,14.99
2023-02-23T13:18:25.906Z,14.98
2023-02-23T13:20:49.246Z,14.98
2023-02-23T13:23:16.553Z,14.95
2023-02-23T13:25:43.571Z,14.94
2023-02-23T13:27:51.750Z,14.93
2023-02-23T13:29:55.280Z,14.95
2023-02-23T13:31:57.958Z,14.93
2023-02-23T13:34:02.217Z,14.90
2023-02-23T13:36:04.882Z,14.90
2023-02-23T13:38:26.607Z,14.90
2023-02-23T13:40:35.387Z,14.89
2023-02-23T13:42:48.812Z,14.88
2023-02-23T13:45:25.451Z,14.87
2023-02-23T13:47:33.891Z,14.90
2023-02-23T13:49:49.393Z,14.91
2023-02-23T13:51:59.476Z,14.92
2023-02-23T13:54:06.555Z,14.94
2023-02-23T13:56:17.358Z,14.91
2023-02-23T13:58:29.726Z,14.92
2023-02-23T14:00:34.399Z,14.95
2023-02-23T14:02:40.840Z,14.99
2023-02-23T14:04:43.031Z,15.01
2023-02-23T14:06:56.413Z,15.00
2023-02-23T14:09:06.758Z,15.01
2023-02-23T14:11:08.585Z,15.04
2023-02-23T14:13:12.934Z,15.03
2023-02-23T14:15:37.918Z,15.02
2023-02-23T14:17:40.668Z,15.03
2023-02-23T14:20:13.295Z,15.01
2023-02-23T14:22:24.256Z,15.03
2023-02-23T14:24:27.708Z,15.03
2023-02-23T14:26:29.315Z,15.04
2023-02-23T14:28:32.512Z,15.05
2023-02-23T14:31:08.126Z,15.04
2023-02-23T14:33:34.132Z,15.02
2023-02-23T14:35:44.082Z,15.03
2023-02-23T14:37:56.251Z,15.03
2023-02-23T14:40:13.094Z,15.05
2023-02-23T14:42:26.471Z,15.06
2023-02-23T14:44:31.567Z,15.09
2023-02-23T14:46:35.999Z,15.07
2023-02-23T14:48:41.663Z,15.09
2023-02-23T14:50:43.482Z,15.11
2023-02-23T14:52:46.043Z,15.12
2023-02-23T14:54:48.221Z,15.14
2023-02-23T14:56:56.636Z,15.16
2023-02-23T14:59:02.061Z,15.15
2023-02-23T15:01:03.589Z,15.19
2023-02-23T15:03:12.695Z,15.21
2023-02-23T15:05:16.514Z,15.21
2023-02-23T15:07:38.460Z,15.19
2023-02-23T15:09:42.743Z,15.21
2023-02-23T15:11:48.645Z,15.24
2023-02-23T15:13:52.216Z,15.24
2023-02-23T15:15:54.955Z,15.24
2023-02-23T15:18:00.888Z,15.25
2023-02-23T15:20:16.252Z,15.24
2023-02-23T15:22:31.523Z,15.24
2023-02-23T15:24:44.598Z,15.22
2023-02-23T15:26:46.303Z,15.24
2023-02-23T15:28:48.112Z,15.23
2023-02-23T15:30:51.723Z,15.23
2023-02-23T15:33:29.221Z,15.18
2023-02-23T15:35:37.923Z,15.17
2023-02-23T15:39:57.028Z,15.15
2023-02-23T15:41:58.760Z,15.17
2023-02-23T15:44:13.187Z,15.13
2023-02-23T15:46:25.500Z,15.13
2023-02-23T15:48:37.116Z,15.14
2023-02-23T15:50:44.568Z,15.13
2023-02-23T15:52:50.272Z,15.14
2023-02-23T15:55:00.202Z,15.15
2023-02-23T15:57:27.423Z,15.13
2023-02-23T15:59:34.630Z,15.11
2023-02-23T16:01:42.818Z,15.11
2023-02-23T16:04:09.420Z,15.10
2023-02-23T16:06:32.641Z,15.10
2023-02-23T16:08:37.742Z,15.08
2023-02-23T16:10:47.181Z,15.06
2023-02-23T16:12:54.236Z,15.06
2023-02-23T16:14:59.647Z,15.07
2023-02-23T16:17:11.165Z,15.07
2023-02-23T16:19:15.136Z,15.07
2023-02-23T16:21:21.569Z,15.07
2023-02-23T16:23:45.650Z,15.04
2023-02-23T16:25:52.821Z,15.03
2023-02-23T16:28:02.906Z,15.03
2023-02-23T16:30:18.737Z,15.03
2023-02-23T16:32:23.656Z,15.01
2023-02-23T16:34:28.220Z,14.99
2023-02-23T16:36:41.059Z,14.98
2023-02-23T16:38:49.144Z,14.99
2023-02-23T16:40:50.905Z,14.98
2023-02-23T16:42:54.026Z,14.96
2023-02-23T16:44:57.680Z,14.93
2023-02-23T16:47:01.860Z,14.94
2023-02-23T16:49:10.414Z,14.93
2023-02-23T16:51:15.526Z,14.94
2023-02-23T16:53:17.570Z,14.93
2023-02-23T16:55:27.942Z,14.92
2023-02-23T16:57:37.347Z,14.88
2023-02-23T16:59:38.899Z,14.87
2023-02-23T17:01:40.387Z,14.89
2023-02-23T17:03:52.485Z,14.89
2023-02-23T17:05:55.136Z,14.88
2023-02-23T17:07:58.534Z,14.83
2023-02-23T17:10:00.178Z,14.80
2023-02-23T17:12:01.857Z,14.77
2023-02-23T17:14:03.695Z,14.73
2023-02-23T17:16:10.456Z,14.70
2023-02-23T17:18:11.990Z,14.70
2023-02-23T17:20:21.366Z,14.69
2023-02-23T17:22:23.054Z,14.67
2023-02-23T17:24:26.314Z,14.68
2023-02-23T17:26:28.380Z,14.67
2023-02-23T17:28:30.033Z,14.63
2023-02-23T17:30:31.924Z,14.60
2023-02-23T17:32:36.444Z,14.58
2023-02-23T17:34:38.540Z,14.57
2023-02-23T17:36:40.132Z,14.52
2023-02-23T17:38:44.514Z,14.52
2023-02-23T17:40:46.105Z,14.49
2023-02-23T17:42:47.661Z,14.47
2023-02-23T17:44:49.313Z,14.45
2023-02-23T17:46:51.006Z,14.44
2023-02-23T17:48:55.095Z,14.40
2023-02-23T17:51:03.825Z,14.39
2023-02-23T17:53:05.450Z,14.36
2023-02-23T17:55:09.447Z,14.34
2023-02-23T17:57:11.163Z,14.30
2023-02-23T17:59:12.876Z,14.28
2023-02-23T18:01:14.434Z,14.25
2023-02-23T18:03:16.481Z,14.25
2023-02-23T18:05:18.319Z,14.22
2023-02-23T18:07:21.646Z,14.18
2023-02-23T18:09:23.330Z,14.15
2023-02-23T18:11:25.232Z,14.13
2023-02-23T18:13:28.936Z,14.12
2023-02-23T18:15:33.342Z,14.09
2023-02-23T18:17:37.138Z,14.10
2023-02-23T18:19:39.188Z,14.07
2023-02-23T18:21:43.472Z,14.06
2023-02-23T18:23:45.316Z,14.04
2023-02-23T18:25:48.071Z,14.03
2023-02-23T18:27:51.131Z,13.99
2023-02-23T18:29:52.627Z,13.97
2023-02-23T18:31:55.436Z,13.94
2023-02-23T18:34:00.242Z,13.91
2023-02-23T18:36:05.098Z,13.90
2023-02-23T18:38:12.486Z,13.85
2023-02-23T18:40:21.429Z,13.83
2023-02-23T18:42:23.166Z,13.79
2023-02-23T18:44:25.456Z,13.76
2023-02-23T18:46:27.674Z,13.75
2023-02-23T18:48:29.137Z,13.75
2023-02-23T18:50:30.900Z,13.75
2023-02-23T18:52:33.509Z,13.73
2023-02-23T18:54:36.455Z,13.73
2023-02-23T18:56:38.128Z,13.72
2023-02-23T18:58:40.400Z,13.68
2023-02-23T19:00:42.582Z,13.67
2023-02-23T19:02:46.387Z,13.65
2023-02-23T19:04:48.177Z,13.64
2023-02-23T19:06:49.734Z,13.62
2023-02-23T19:08:54.343Z,13.60
2023-02-23T19:10:57.100Z,13.59
2023-02-23T19:12:58.609Z,13.58
2023-02-23T19:15:00.234Z,13.56
2023-02-23T19:17:03.050Z,13.54
2023-02-23T19:19:06.760Z,13.52
2023-02-23T19:21:11.294Z,13.49
2023-02-23T19:23:13.426Z,13.49
2023-02-23T19:25:15.305Z,13.48
2023-02-23T19:27:17.941Z,13.48
2023-02-23T19:29:19.552Z,13.47
2023-02-23T19:31:24.248Z,13.45
2023-02-23T19:33:26.076Z,13.43
2023-02-23T19:35:27.617Z,13.42
2023-02-23T19:37:29.230Z,13.39
2023-02-23T19:39:30.849Z,13.38
2023-02-23T19:41:33.700Z,13.38
2023-02-23T19:43:35.121Z,13.38
2023-02-23T19:45:36.838Z,13.34
2023-02-23T19:47:38.611Z,13.35
2023-02-23T19:49:40.190Z,13.35
2023-02-23T19:51:42.052Z,13.33
2023-02-23T19:53:43.537Z,13.33
2023-02-23T19:55:45.306Z,13.33
2023-02-23T19:57:47.112Z,13.33
2023-02-23T19:59:48.600Z,13.30
2023-02-23T20:01:51.439Z,13.28
2023-02-23T20:04:01.625Z,13.29
2023-02-23T20:06:05.975Z,13.26
2023-02-23T20:08:10.545Z,13.27
2023-02-23T20:10:16.512Z,13.27
2023-02-23T20:12:18.196Z,13.27
2023-02-23T20:14:19.606Z,13.25
2023-02-23T20:16:21.605Z,13.25
2023-02-23T20:18:24.905Z,13.24
2023-02-23T20:20:28.753Z,13.25
2023-02-23T20:22:33.342Z,13.24
2023-02-23T20:24:34.761Z,13.23
2023-02-23T20:26:37.229Z,13.20
2023-02-23T20:28:40.133Z,13.17
2023-02-23T20:30:46.805Z,13.17
2023-02-23T20:32:49.071Z,13.15
2023-02-23T20:34:51.767Z,13.15
2023-02-23T20:36:55.078Z,13.14
2023-02-23T20:38:56.703Z,13.13
2023-02-23T20:40:58.817Z,13.11
2023-02-23T20:43:00.346Z,13.09
2023-02-23T20:45:01.963Z,13.10
2023-02-23T20:47:09.755Z,13.07
2023-02-23T20:49:18.290Z,13.06
2023-02-23T20:51:20.397Z,13.08
2023-02-23T20:53:24.452Z,13.06
2023-02-23T20:55:27.213Z,13.02
2023-02-23T20:57:29.665Z,13.03
2023-02-23T20:59:32.220Z,13.00
2023-02-23T21:01:34.129Z,13.00
2023-02-23T21:03:35.933Z,12.98
2023-02-23T21:05:41.922Z,12.97
2023-02-23T21:07:45.863Z,12.94
2023-02-23T21:09:47.384Z,12.92
2023-02-23T21:11:48.877Z,12.93
2023-02-23T21:13:52.062Z,12.89
2023-02-23T21:15:59.690Z,12.89
2023-02-23T21:18:04.306Z,12.88
2023-02-23T21:20:06.845Z,12.88
2023-02-23T21:22:09.296Z,12.87
2023-02-23T21:24:12.022Z,12.87
2023-02-23T21:26:13.629Z,12.86
2023-02-23T21:28:15.663Z,12.85
2023-02-23T21:30:19.686Z,12.83
2023-02-23T21:32:22.427Z,12.84
2023-02-23T21:34:24.010Z,12.82
2023-02-23T21:36:28.370Z,12.83
2023-02-23T21:38:29.946Z,12.83
2023-02-23T21:40:31.698Z,12.81
2023-02-23T21:42:33.228Z,12.83
2023-02-23T21:44:34.928Z,12.85
2023-02-23T21:46:36.837Z,12.86
2023-02-23T21:48:38.550Z,12.81
2023-02-23T21:50:40.138Z,12.83
2023-02-23T21:52:43.702Z,12.81
2023-02-23T21:54:49.960Z,12.81
2023-02-23T21:56:51.761Z,12.80
2023-02-23T21:58:55.063Z,12.79
2023-02-23T22:00:56.836Z,12.78
2023-02-23T22:02:58.587Z,12.75
2023-02-23T22:05:00.156Z,12.75
2023-02-23T22:07:02.212Z,12.77
2023-02-23T22:09:06.536Z,12.74
2023-02-23T22:11:10.042Z,12.73
2023-02-23T22:13:11.653Z,12.71
2023-02-23T22:15:15.730Z,12.72
2023-02-23T22:17:19.283Z,12.71
2023-02-23T22:19:20.934Z,12.72
2023-02-23T22:21:23.549Z,12.70
2023-02-23T22:23:27.730Z,12.72
2023-02-23T22:25:29.680Z,12.71
2023-02-23T22:27:31.744Z,12.72
2023-02-23T22:29:35.052Z,12.73
2023-02-23T22:31:38.161Z,12.72
2023-02-23T22:33:44.767Z,12.73
2023-02-23T22:35:46.954Z,12.70
2023-02-23T22:37:48.761Z,12.69
2023-02-23T22:39:50.324Z,12.67
2023-02-23T22:41:51.830Z,12.69
2023-02-23T22:43:53.442Z,12.68
2023-02-23T22:45:55.713Z,12.68
2023-02-23T22:48:01.439Z,12.66
2023-02-23T22:50:06.146Z,12.67
2023-02-23T22:52:07.651Z,12.68
2023-02-23T22:54:10.002Z,12.66
2023-02-23T22:56:11.714Z,12.65
2023-02-23T22:58:15.108Z,12.65
2023-02-23T23:00:18.767Z,12.64
2023-02-23T23:02:21.922Z,12.64
2023-02-23T23:04:24.287Z,12.64
2023-02-23T23:06:27.078Z,12.62
2023-02-23T23:08:37.001Z,12.64
2023-02-23T23:10:41.142Z,12.63
2023-02-23T23:12:42.614Z,12.63
2023-02-23T23:14:45.454Z,12.62
2023-02-23T23:16:53.193Z,12.62
2023-02-23T23:18:56.800Z,12.61
2023-02-23T23:21:02.376Z,12.61
2023-02-23T23:23:07.113Z,12.61
2023-02-23T23:25:14.627Z,12.62
2023-02-23T23:27:16.529Z,12.61
2023-02-23T23:29:18.073Z,12.60
2023-02-23T23:31:23.611Z,12.61
2023-02-23T23:33:26.894Z,12.60
2023-02-23T23:35:28.445Z,12.60
2023-02-23T23:37:30.168Z,12.60
2023-02-23T23:39:31.686Z,12.60
2023-02-23T23:41:35.425Z,12.59
2023-02-23T23:43:37.559Z,12.59
2023-02-23T23:45:40.559Z,12.58
2023-02-23T23:47:43.859Z,12.59
2023-02-23T23:49:45.470Z,12.59
2023-02-23T23:51:50.441Z,12.58
2023-02-23T23:53:52.340Z,12.55
2023-02-23T23:55:53.890Z,12.56
2023-02-23T23:57:55.341Z,12.55
2023-02-23T23:59:56.805Z,12.55
